Time;durP1;ratioP1;P1;durP2;ratioP2;P2;SDS_P1;SDS_P2;PMS_P1;PMS_P2;Temp;Humidity;BMP_temperature;BMP_pressure;BME280_temperature;BME280_humidity;BME280_pressure;Samples;Min_cycle;Max_cycle;Signal;HPM_P1;HPM_P2
2023/08/22 00:00:28;;;;;;;6.10;1.63;;;16.80;99.90;;;;;;5042937;28;20090;-67
2023/08/22 00:02:55;;;;;;;3.75;1.77;;;16.80;99.90;;;;;;5063023;28;20048;-67
2023/08/22 00:05:21;;;;;;;4.63;1.63;;;16.80;99.90;;;;;;5060859;28;20135;-68
2023/08/22 00:07:48;;;;;;;4.38;1.70;;;16.80;99.90;;;;;;5056323;28;20529;-67
2023/08/22 00:10:14;;;;;;;2.50;1.90;;;16.80;99.90;;;;;;5056855;28;20494;-67
2023/08/22 00:12:41;;;;;;;1.80;1.70;;;16.80;99.90;;;;;;5064774;28;20052;-67
2023/08/22 00:15:09;;;;;;;3.30;1.92;;;16.80;99.90;;;;;;5069624;28;20056;-67
2023/08/22 00:17:42;;;;;;;3.08;2.17;;;16.90;99.90;;;;;;5068516;28;20040;-67
2023/08/22 00:20:08;;;;;;;6.28;2.30;;;16.80;99.90;;;;;;5069876;28;20339;-67
2023/08/22 00:22:35;;;;;;;6.80;2.95;;;16.90;99.90;;;;;;5068527;28;20516;-67
2023/08/22 00:25:01;;;;;;;4.93;2.65;;;16.80;99.90;;;;;;5068986;28;20056;-67
2023/08/22 00:27:27;;;;;;;7.60;3.40;;;16.90;99.90;;;;;;5069187;28;20125;-67
2023/08/22 00:29:53;;;;;;;2.63;2.42;;;16.80;99.90;;;;;;5068756;28;20047;-67
2023/08/22 00:32:19;;;;;;;5.68;2.80;;;16.80;99.90;;;;;;5068136;28;20115;-67
2023/08/22 00:34:44;;;;;;;6.35;3.25;;;16.80;99.90;;;;;;5066487;28;20052;-67
2023/08/22 00:37:10;;;;;;;3.92;3.33;;;16.90;99.90;;;;;;5056383;28;20041;-68
2023/08/22 00:39:36;;;;;;;4.88;3.50;;;16.80;99.90;;;;;;5068572;28;20044;-68
2023/08/22 00:42:01;;;;;;;5.38;3.22;;;16.90;99.90;;;;;;5051024;28;20051;-68
2023/08/22 00:44:27;;;;;;;4.78;3.10;;;16.80;99.90;;;;;;5068318;28;20047;-68
2023/08/22 00:46:53;;;;;;;7.57;3.60;;;16.80;99.90;;;;;;5068203;28;20086;-68
2023/08/22 00:49:19;;;;;;;4.85;3.17;;;16.90;99.90;;;;;;5084255;28;20048;-68
2023/08/22 00:51:45;;;;;;;5.25;3.53;;;16.90;99.90;;;;;;5068344;28;20052;-68
2023/08/22 00:54:12;;;;;;;6.15;3.58;;;16.90;99.90;;;;;;5068139;28;20041;-67
2023/08/22 00:56:38;;;;;;;3.70;3.35;;;16.90;99.90;;;;;;5068326;28;20447;-68
2023/08/22 00:59:04;;;;;;;5.07;3.28;;;16.90;99.90;;;;;;5050879;28;20047;-67
2023/08/22 01:01:30;;;;;;;5.85;3.80;;;17.00;99.90;;;;;;5068168;28;20044;-68
2023/08/22 01:03:56;;;;;;;8.75;3.92;;;16.90;99.90;;;;;;5067895;28;20142;-68
2023/08/22 01:06:37;;;;;;;4.90;3.72;;;16.90;99.90;;;;;;5051263;28;20040;-67
2023/08/22 01:09:14;;;;;;;6.75;3.55;;;17.00;99.90;;;;;;5065686;28;20409;-68
2023/08/22 01:11:45;;;;;;;6.10;4.07;;;17.00;99.90;;;;;;5057978;28;20557;-68
2023/08/22 01:14:16;;;;;;;6.95;4.00;;;16.90;99.90;;;;;;5067559;28;20048;-68
2023/08/22 01:16:42;;;;;;;5.40;3.65;;;16.90;99.90;;;;;;5067846;28;20036;-68
2023/08/22 01:19:08;;;;;;;9.18;3.67;;;16.90;99.90;;;;;;5066958;28;20059;-67
2023/08/22 01:21:35;;;;;;;4.15;3.63;;;16.80;99.90;;;;;;5066796;28;20872;-68
2023/08/22 01:24:04;;;;;;;9.60;3.90;;;16.90;99.90;;;;;;5082988;28;20045;-68
2023/08/22 01:26:30;;;;;;;7.10;4.20;;;16.90;99.90;;;;;;5033126;28;20110;-67
2023/08/22 01:29:09;;;;;;;8.25;3.83;;;16.90;99.90;;;;;;5067494;28;20409;-68
2023/08/22 01:31:47;;;;;;;;;;;16.90;99.90;;;;;;5062014;28;20048;-68
2023/08/22 01:34:21;;;;;;;3.55;3.08;;;16.90;99.90;;;;;;5067607;28;19924;-68
2023/08/22 01:36:47;;;;;;;4.60;3.78;;;16.90;99.90;;;;;;5053998;28;20382;-68
2023/08/22 01:39:15;;;;;;;4.30;3.90;;;16.90;99.90;;;;;;5049800;28;20041;-67
2023/08/22 01:41:41;;;;;;;6.97;4.22;;;16.90;99.90;;;;;;5067194;28;20394;-67
2023/08/22 01:44:07;;;;;;;4.50;3.60;;;16.80;99.90;;;;;;5066810;28;20106;-68
2023/08/22 01:46:33;;;;;;;6.40;3.88;;;16.80;99.90;;;;;;5067948;28;20040;-68
2023/08/22 01:48:59;;;;;;;9.60;4.07;;;16.90;99.90;;;;;;5067199;28;20114;-68
2023/08/22 01:51:24;;;;;;;4.18;3.88;;;16.80;99.90;;;;;;5049760;28;20752;-68
2023/08/22 01:53:50;;;;;;;5.30;3.67;;;16.90;99.90;;;;;;5067040;28;20155;-68
2023/08/22 01:56:16;;;;;;;7.60;3.88;;;16.90;99.90;;;;;;5067081;28;20047;-67
2023/08/22 01:58:41;;;;;;;6.55;3.78;;;16.90;99.90;;;;;;5049671;28;20474;-67
2023/08/22 02:01:11;;;;;;;6.60;4.05;;;16.80;99.90;;;;;;5066805;28;20671;-68
2023/08/22 02:03:38;;;;;;;3.80;3.50;;;16.80;99.90;;;;;;5067308;28;20532;-68
2023/08/22 02:06:04;;;;;;;5.53;3.85;;;16.80;99.90;;;;;;5066454;28;20052;-67
2023/08/22 02:08:30;;;;;;;5.63;3.70;;;16.80;99.90;;;;;;5067115;28;20098;-67
2023/08/22 02:10:56;;;;;;;4.57;3.60;;;16.90;99.90;;;;;;5034786;28;20032;-68
2023/08/22 02:13:22;;;;;;;6.72;3.78;;;16.80;99.90;;;;;;5067173;28;20044;-68
2023/08/22 02:15:47;;;;;;;4.97;4.15;;;16.80;99.90;;;;;;5066884;28;20441;-68
2023/08/22 02:18:14;;;;;;;5.97;4.13;;;16.80;99.90;;;;;;5067111;28;20123;-68
2023/08/22 02:20:39;;;;;;;7.43;3.17;;;16.80;99.90;;;;;;5067192;28;20059;-68
2023/08/22 02:23:05;;;;;;;6.40;4.18;;;16.80;99.90;;;;;;5066145;28;20040;-68
2023/08/22 02:25:32;;;;;;;5.55;3.72;;;16.70;99.90;;;;;;5066452;28;20060;-68
2023/08/22 02:27:58;;;;;;;6.97;4.32;;;16.70;99.90;;;;;;5066001;28;20076;-68
2023/08/22 02:30:24;;;;;;;6.60;4.30;;;16.70;99.90;;;;;;5049098;28;20046;-68
2023/08/22 02:32:50;;;;;;;7.03;4.15;;;16.70;99.90;;;;;;5065862;28;20044;-68
2023/08/22 02:35:16;;;;;;;5.97;4.60;;;16.70;99.90;;;;;;5066590;28;20041;-68
2023/08/22 02:37:42;;;;;;;5.53;4.60;;;16.70;99.90;;;;;;5055499;28;20045;-68
2023/08/22 02:40:11;;;;;;;7.18;4.15;;;16.60;99.90;;;;;;5034263;28;20103;-68
2023/08/22 02:42:37;;;;;;;5.00;4.20;;;16.70;99.90;;;;;;5066809;28;20509;-68
2023/08/22 02:45:04;;;;;;;6.15;4.40;;;16.60;99.90;;;;;;5066086;28;20102;-68
2023/08/22 02:47:31;;;;;;;5.60;3.53;;;16.60;99.90;;;;;;5067165;28;20039;-68
2023/08/22 02:49:57;;;;;;;9.10;4.15;;;16.70;99.90;;;;;;5065645;28;20053;-68
2023/08/22 02:52:24;;;;;;;6.18;4.15;;;16.70;99.90;;;;;;5066727;28;20121;-68
2023/08/22 02:54:51;;;;;;;9.05;4.68;;;16.60;99.90;;;;;;5066668;28;20041;-68
2023/08/22 02:57:16;;;;;;;7.00;4.45;;;16.60;99.90;;;;;;5066440;28;20398;-68
2023/08/22 02:59:42;;;;;;;8.80;4.65;;;16.60;99.90;;;;;;5066349;28;20037;-68
2023/08/22 03:02:08;;;;;;;6.53;4.68;;;16.60;99.90;;;;;;5048538;28;20492;-68
2023/08/22 03:04:36;;;;;;;9.00;3.72;;;16.60;99.90;;;;;;5066847;28;20048;-68
2023/08/22 03:07:05;;;;;;;8.20;4.57;;;16.60;99.90;;;;;;5047457;28;20048;-68
2023/08/22 03:09:32;;;;;;;4.30;3.90;;;16.60;99.90;;;;;;5059782;28;20048;-68
2023/08/22 03:11:58;;;;;;;6.10;3.58;;;16.60;99.90;;;;;;5040220;28;20509;-67
2023/08/22 03:14:25;;;;;;;4.93;3.88;;;16.60;99.90;;;;;;5066301;28;20112;-68
2023/08/22 03:16:51;;;;;;;7.03;3.97;;;16.50;99.90;;;;;;5066432;28;20056;-68
2023/08/22 03:19:16;;;;;;;6.70;3.50;;;16.50;99.90;;;;;;5065419;28;20044;-68
2023/08/22 03:21:42;;;;;;;5.88;3.70;;;16.50;99.90;;;;;;5066761;28;20043;-68
2023/08/22 03:24:08;;;;;;;5.50;4.30;;;16.40;99.90;;;;;;5065311;28;20635;-68
2023/08/22 03:26:34;;;;;;;5.28;4.18;;;16.50;99.90;;;;;;5066585;28;20403;-68
2023/08/22 03:28:59;;;;;;;6.82;4.05;;;16.50;99.90;;;;;;5066788;28;20506;-68
2023/08/22 03:31:28;;;;;;;5.75;4.22;;;16.40;99.90;;;;;;5063852;28;20083;-68
2023/08/22 03:33:54;;;;;;;4.30;3.90;;;16.40;99.90;;;;;;5065913;28;20052;-68
2023/08/22 03:36:20;;;;;;;6.28;4.13;;;16.40;99.90;;;;;;5047526;28;20055;-68
2023/08/22 03:38:50;;;;;;;5.82;4.00;;;16.40;99.90;;;;;;5048312;28;20076;-68
2023/08/22 03:41:19;;;;;;;5.07;3.80;;;16.40;99.90;;;;;;5064794;28;20189;-68
2023/08/22 03:43:45;;;;;;;4.72;4.22;;;16.40;99.90;;;;;;5066321;28;20045;-68
2023/08/22 03:46:10;;;;;;;7.05;4.22;;;16.30;99.90;;;;;;5068232;28;20474;-68
2023/08/22 03:48:36;;;;;;;7.03;4.45;;;16.30;99.90;;;;;;5069930;28;20036;-68
2023/08/22 03:51:08;;;;;;;14.60;4.65;;;16.30;99.90;;;;;;5069180;28;20458;-68
2023/08/22 03:53:34;;;;;;;6.13;5.20;;;16.30;99.90;;;;;;5069148;28;20045;-68
2023/08/22 03:56:00;;;;;;;5.45;4.10;;;16.30;99.90;;;;;;5051794;28;20048;-68
2023/08/22 03:58:26;;;;;;;9.73;4.40;;;16.30;99.90;;;;;;5067864;28;20114;-68
2023/08/22 04:00:54;;;;;;;6.53;4.30;;;16.30;99.90;;;;;;5070505;28;20048;-68
2023/08/22 04:03:20;;;;;;;5.32;4.20;;;16.20;99.90;;;;;;5051556;28;20041;-68
2023/08/22 04:05:46;;;;;;;9.15;4.40;;;16.20;99.90;;;;;;5069570;28;20036;-68
2023/08/22 04:08:12;;;;;;;5.20;4.38;;;16.10;99.90;;;;;;5068520;28;20093;-68
2023/08/22 04:10:37;;;;;;;6.07;4.07;;;16.10;99.90;;;;;;5054936;28;20170;-68
2023/08/22 04:13:03;;;;;;;5.60;3.97;;;16.10;99.90;;;;;;5069121;28;20052;-68
2023/08/22 04:15:29;;;;;;;4.53;3.65;;;16.10;99.90;;;;;;5069015;28;20455;-68
2023/08/22 04:17:54;;;;;;;4.10;3.58;;;16.00;99.90;;;;;;5083033;28;20081;-68
2023/08/22 04:20:20;;;;;;;3.28;3.00;;;16.00;99.90;;;;;;5068658;28;20421;-68
2023/08/22 04:22:46;;;;;;;4.72;3.80;;;16.00;99.90;;;;;;5069708;28;20037;-68
2023/08/22 04:25:12;;;;;;;4.55;3.55;;;15.90;99.90;;;;;;5068111;28;20087;-68
2023/08/22 04:27:38;;;;;;;3.17;2.40;;;15.90;99.90;;;;;;5068633;28;20063;-68
2023/08/22 04:30:06;;;;;;;2.55;2.28;;;15.90;99.90;;;;;;5069132;28;20048;-68
2023/08/22 04:32:32;;;;;;;3.70;3.40;;;15.80;99.90;;;;;;5069314;28;20043;-68
2023/08/22 04:34:58;;;;;;;8.68;4.80;;;15.80;99.90;;;;;;5069020;28;20393;-68
2023/08/22 04:37:24;;;;;;;4.15;3.20;;;15.80;99.90;;;;;;5033954;28;20048;-68
2023/08/22 04:39:49;;;;;;;6.30;3.20;;;15.80;99.90;;;;;;5059674;28;20083;-68
2023/08/22 04:42:15;;;;;;;2.70;2.50;;;15.70;99.90;;;;;;5068494;28;20045;-68
2023/08/22 04:44:41;;;;;;;4.28;3.25;;;15.70;99.90;;;;;;5068686;28;20418;-68
2023/08/22 04:47:06;;;;;;;4.47;3.75;;;15.70;99.90;;;;;;5069078;28;20132;-68
2023/08/22 04:49:32;;;;;;;3.65;3.35;;;15.70;99.90;;;;;;5068278;28;20123;-68
2023/08/22 04:51:58;;;;;;;4.70;3.83;;;15.70;99.90;;;;;;5050690;28;20481;-68
2023/08/22 04:54:24;;;;;;;2.72;2.53;;;15.60;99.90;;;;;;5067788;28;20044;-68
2023/08/22 04:56:50;;;;;;;8.95;3.63;;;15.60;99.90;;;;;;5068491;28;20041;-68
2023/08/22 04:59:15;;;;;;;3.30;3.10;;;15.60;99.90;;;;;;5049891;28;20036;-68
2023/08/22 05:01:41;;;;;;;3.22;2.90;;;15.50;99.90;;;;;;5050599;28;20436;-68
2023/08/22 05:04:07;;;;;;;3.33;2.30;;;15.50;99.90;;;;;;5068087;28;20053;-68
2023/08/22 05:06:33;;;;;;;3.47;2.60;;;15.50;99.90;;;;;;5068165;28;20576;-68
2023/08/22 05:08:59;;;;;;;3.60;3.33;;;15.50;99.90;;;;;;5065629;28;20145;-68
2023/08/22 05:11:24;;;;;;;7.63;4.68;;;15.60;99.90;;;;;;5036886;28;20048;-68
2023/08/22 05:13:50;;;;;;;4.20;3.80;;;15.50;99.90;;;;;;5068379;28;20040;-68
2023/08/22 05:16:16;;;;;;;4.53;3.75;;;15.50;99.90;;;;;;5049532;28;20041;-68
2023/08/22 05:18:41;;;;;;;3.88;3.40;;;15.50;99.90;;;;;;5068923;28;20040;-68
2023/08/22 05:21:07;;;;;;;4.13;3.55;;;15.50;99.90;;;;;;5083223;28;20441;-68
2023/08/22 05:23:33;;;;;;;5.30;4.05;;;15.60;99.90;;;;;;5068337;28;20055;-68
2023/08/22 05:25:58;;;;;;;7.50;5.20;;;15.70;99.90;;;;;;5068034;28;20841;-68
2023/08/22 05:28:24;;;;;;;7.38;5.28;;;15.70;99.90;;;;;;5062582;28;20036;-68
2023/08/22 05:30:50;;;;;;;6.45;4.25;;;15.80;99.90;;;;;;5067618;28;20052;-68
2023/08/22 05:33:15;;;;;;;5.72;4.30;;;15.80;99.90;;;;;;5067334;28;20049;-68
2023/08/22 05:35:41;;;;;;;5.88;4.03;;;15.90;99.90;;;;;;5068047;28;20044;-68
2023/08/22 05:38:07;;;;;;;5.50;4.20;;;16.00;99.90;;;;;;5067477;28;20045;-68
2023/08/22 05:40:32;;;;;;;5.40;4.22;;;16.00;99.90;;;;;;5049543;28;20482;-68
2023/08/22 05:42:58;;;;;;;13.32;5.35;;;16.00;99.90;;;;;;5067419;28;20128;-67
2023/08/22 05:45:24;;;;;;;6.70;4.53;;;16.10;99.90;;;;;;5049330;28;20049;-67
2023/08/22 05:47:50;;;;;;;9.32;5.25;;;16.20;99.90;;;;;;5067393;28;20044;-67
2023/08/22 05:50:15;;;;;;;6.85;4.53;;;16.30;99.90;;;;;;5066718;28;20391;-67
2023/08/22 05:52:41;;;;;;;8.32;4.50;;;16.30;99.90;;;;;;5067663;28;20048;-67
2023/08/22 05:55:07;;;;;;;8.68;5.03;;;16.40;99.90;;;;;;5067109;28;20486;-67
2023/08/22 05:57:33;;;;;;;7.43;4.57;;;16.40;99.90;;;;;;5067341;28;20706;-67
2023/08/22 05:59:59;;;;;;;8.73;4.55;;;16.50;99.90;;;;;;5066980;28;20048;-67
2023/08/22 06:02:25;;;;;;;6.15;4.45;;;16.60;99.90;;;;;;5082727;28;20382;-67
2023/08/22 06:04:51;;;;;;;5.47;4.22;;;16.60;99.90;;;;;;5067282;28;20072;-67
2023/08/22 06:07:17;;;;;;;4.65;4.15;;;16.80;99.90;;;;;;5080290;28;20087;-67
2023/08/22 06:09:43;;;;;;;8.00;5.30;;;16.80;99.90;;;;;;5041100;28;20048;-67
2023/08/22 06:12:09;;;;;;;10.32;5.00;;;16.90;99.90;;;;;;5060686;28;20067;-67
2023/08/22 06:14:35;;;;;;;6.72;4.50;;;16.90;99.90;;;;;;5048774;28;20399;-67
2023/08/22 06:17:01;;;;;;;11.80;5.07;;;17.00;99.90;;;;;;5066442;28;20075;-67
2023/08/22 06:19:26;;;;;;;12.32;4.57;;;17.10;99.90;;;;;;5066952;28;20249;-67
2023/08/22 06:21:53;;;;;;;6.75;4.80;;;17.20;99.90;;;;;;5066581;28;20123;-67
2023/08/22 06:24:20;;;;;;;9.43;4.65;;;17.20;99.90;;;;;;5066406;28;20133;-67
2023/08/22 06:26:48;;;;;;;9.63;4.90;;;17.30;99.90;;;;;;5066496;28;20048;-67
2023/08/22 06:29:13;;;;;;;6.47;5.47;;;17.40;99.90;;;;;;5066823;28;20063;-67
2023/08/22 06:31:39;;;;;;;8.93;5.05;;;17.50;99.90;;;;;;5032093;28;20049;-67
2023/08/22 06:34:05;;;;;;;6.95;4.70;;;17.60;99.90;;;;;;5066484;28;20047;-67
2023/08/22 06:36:30;;;;;;;11.40;5.75;;;17.70;99.90;;;;;;5066846;28;20039;-67
2023/08/22 06:38:56;;;;;;;10.90;5.57;;;17.80;99.90;;;;;;5066009;28;20050;-67
2023/08/22 06:41:22;;;;;;;11.60;5.35;;;17.90;99.90;;;;;;5066218;28;20040;-67
2023/08/22 06:43:48;;;;;;;9.60;4.93;;;17.90;99.90;;;;;;5066619;28;20036;-67
2023/08/22 06:46:15;;;;;;;12.68;4.75;;;18.00;99.90;;;;;;5066037;28;20102;-66
2023/08/22 06:48:41;;;;;;;8.93;5.28;;;18.10;99.90;;;;;;5069224;28;20111;-67
2023/08/22 06:51:07;;;;;;;9.20;4.97;;;18.10;99.90;;;;;;5074051;28;20140;-67
2023/08/22 06:53:33;;;;;;;11.43;4.78;;;18.20;99.90;;;;;;5071969;28;20040;-67
2023/08/22 06:55:59;;;;;;;8.82;4.53;;;18.30;99.90;;;;;;5065279;28;20098;-67
2023/08/22 06:58:24;;;;;;;12.18;4.68;;;18.40;99.90;;;;;;5065931;28;20119;-66
2023/08/22 07:00:50;;;;;;;6.65;3.90;;;18.50;99.90;;;;;;5066462;28;20504;-67
2023/08/22 07:03:16;;;;;;;11.15;4.47;;;18.70;99.90;;;;;;5066297;28;20041;-67
2023/08/22 07:05:41;;;;;;;6.10;3.90;;;18.70;99.90;;;;;;5067944;28;20482;-67
2023/08/22 07:08:07;;;;;;;9.82;5.18;;;18.80;99.90;;;;;;5066249;28;20090;-67
2023/08/22 07:10:34;;;;;;;6.60;3.88;;;18.80;99.90;;;;;;5051670;28;20074;-67
2023/08/22 07:13:00;;;;;;;5.90;4.00;;;18.90;99.90;;;;;;5065727;28;20063;-67
2023/08/22 07:15:27;;;;;;;17.13;4.22;;;18.90;99.90;;;;;;5048145;28;20036;-67
2023/08/22 07:17:53;;;;;;;11.43;4.28;;;19.00;99.90;;;;;;5067223;28;20414;-67
2023/08/22 07:20:18;;;;;;;7.65;3.78;;;19.00;99.90;;;;;;5069174;28;20048;-66
2023/08/22 07:22:44;;;;;;;8.60;3.92;;;19.10;99.90;;;;;;5069506;28;20486;-67
2023/08/22 07:25:10;;;;;;;6.85;3.70;;;19.10;99.90;;;;;;5069993;28;20068;-67
2023/08/22 07:27:36;;;;;;;11.02;3.95;;;19.10;99.90;;;;;;5069509;28;20450;-67
2023/08/22 07:30:03;;;;;;;5.60;3.33;;;19.10;99.90;;;;;;5070188;28;20079;-67
2023/08/22 07:32:29;;;;;;;7.75;3.85;;;19.10;99.90;;;;;;5052930;28;20045;-67
2023/08/22 07:34:56;;;;;;;9.60;4.15;;;19.20;99.90;;;;;;5051982;28;20044;-67
2023/08/22 07:37:22;;;;;;;6.95;3.85;;;19.20;99.90;;;;;;5085539;28;20498;-67
2023/08/22 07:39:49;;;;;;;4.43;3.78;;;19.20;99.90;;;;;;5069457;28;20074;-67
2023/08/22 07:42:16;;;;;;;8.40;3.80;;;19.20;99.90;;;;;;5069578;28;20075;-66
2023/08/22 07:44:43;;;;;;;7.85;4.10;;;19.20;99.90;;;;;;5069725;28;20473;-66
2023/08/22 07:47:09;;;;;;;4.00;3.50;;;19.20;99.90;;;;;;5071782;28;20106;-66
2023/08/22 07:49:34;;;;;;;6.68;3.35;;;19.30;99.90;;;;;;5062248;28;20032;-66
2023/08/22 07:52:01;;;;;;;10.50;4.20;;;19.50;99.90;;;;;;5068584;28;20129;-66
2023/08/22 07:54:28;;;;;;;9.00;3.95;;;19.70;99.90;;;;;;5082772;28;20052;-67
2023/08/22 07:56:54;;;;;;;9.80;3.72;;;20.10;99.90;;;;;;5050156;28;20036;-66
2023/08/22 07:59:20;;;;;;;6.40;3.83;;;20.40;99.90;;;;;;5069248;28;20060;-66
2023/08/22 08:01:46;;;;;;;5.00;3.53;;;20.60;99.90;;;;;;5066159;28;20580;-66
2023/08/22 08:04:12;;;;;;;7.07;3.70;;;20.90;99.90;;;;;;5052026;28;20060;-66
2023/08/22 08:06:37;;;;;;;5.35;3.78;;;21.20;99.90;;;;;;5067865;28;20049;-66
2023/08/22 08:09:04;;;;;;;6.88;4.10;;;21.30;99.90;;;;;;5066249;28;20044;-66
2023/08/22 08:11:31;;;;;;;5.40;3.72;;;21.30;99.90;;;;;;5045655;28;20441;-66
2023/08/22 08:13:57;;;;;;;7.30;3.50;;;21.10;99.90;;;;;;5062650;28;20052;-66
2023/08/22 08:16:23;;;;;;;7.07;3.63;;;21.10;99.90;;;;;;5052876;28;20431;-66
2023/08/22 08:18:51;;;;;;;4.63;3.05;;;21.00;99.90;;;;;;5050846;28;20051;-66
2023/08/22 08:21:17;;;;;;;10.02;3.60;;;21.10;99.90;;;;;;5052625;28;20077;-66
2023/08/22 08:23:44;;;;;;;12.07;4.20;;;21.20;99.90;;;;;;5065790;28;20068;-66
2023/08/22 08:26:11;;;;;;;4.53;2.60;;;21.50;99.90;;;;;;5067105;28;20082;-66
2023/08/22 08:28:36;;;;;;;5.10;2.90;;;21.60;99.90;;;;;;5046354;28;20398;-66
2023/08/22 08:31:02;;;;;;;3.38;2.47;;;21.80;99.90;;;;;;5062506;28;20107;-66
2023/08/22 08:33:28;;;;;;;5.30;1.90;;;22.00;98.40;;;;;;5062770;28;20049;-66
2023/08/22 08:35:54;;;;;;;6.50;2.05;;;22.30;99.90;;;;;;5066737;28;20036;-66
2023/08/22 08:38:20;;;;;;;5.93;2.22;;;22.50;92.90;;;;;;5048208;28;20397;-66
2023/08/22 08:40:46;;;;;;;6.38;2.17;;;22.60;85.60;;;;;;5066507;28;20037;-66
2023/08/22 08:43:12;;;;;;;4.43;1.85;;;22.80;89.50;;;;;;5046233;28;20051;-66
2023/08/22 08:45:39;;;;;;;4.88;2.33;;;23.00;84.70;;;;;;5068354;28;20422;-66
2023/08/22 08:48:06;;;;;;;6.68;2.33;;;23.20;63.50;;;;;;5029824;28;20124;-66
2023/08/22 08:50:32;;;;;;;4.40;2.08;;;23.20;42.10;;;;;;5049138;28;20041;-66
2023/08/22 08:53:01;;;;;;;5.57;2.40;;;23.30;25.50;;;;;;5064355;28;20598;-66
2023/08/22 08:55:27;;;;;;;5.70;1.77;;;23.40;22.20;;;;;;5056663;28;20048;-65
2023/08/22 08:57:53;;;;;;;6.07;1.75;;;23.30;9.10;;;;;;5064807;28;20041;-66
2023/08/22 09:00:19;;;;;;;3.35;1.70;;;23.10;1.00;;;;;;5066479;28;20416;-66
2023/08/22 09:02:45;;;;;;;5.72;1.95;;;23.00;7.60;;;;;;5067787;28;20180;-66
2023/08/22 09:05:11;;;;;;;3.00;1.60;;;22.80;3.70;;;;;;5067487;28;20036;-66
2023/08/22 09:07:37;;;;;;;2.83;1.73;;;22.80;13.00;;;;;;5068789;28;20119;-66
2023/08/22 09:10:04;;;;;;;4.80;1.70;;;22.90;16.40;;;;;;5056908;28;20500;-66
2023/08/22 09:12:35;;;;;;;4.72;1.50;;;23.20;7.20;;;;;;5064917;28;20041;-66
2023/08/22 09:15:02;;;;;;;1.67;1.33;;;23.40;10.80;;;;;;5049741;28;20556;-66
2023/08/22 09:17:29;;;;;;;3.75;1.35;;;23.60;2.90;;;;;;5051900;28;20067;-66
2023/08/22 09:19:55;;;;;;;2.65;1.35;;;23.60;1.00;;;;;;5067803;28;20037;-66
2023/08/22 09:22:30;;;;;;;1.98;1.50;;;23.50;1.00;;;;;;5060555;28;20079;-66
2023/08/22 09:24:56;;;;;;;5.20;1.63;;;23.40;1.00;;;;;;5051973;28;20056;-66
2023/08/22 09:27:26;;;;;;;7.20;1.92;;;23.20;1.00;;;;;;5037039;28;20049;-66
2023/08/22 09:29:53;;;;;;;3.03;1.70;;;23.00;1.00;;;;;;5056412;28;20037;-66
2023/08/22 09:32:22;;;;;;;1.60;1.13;;;23.00;1.00;;;;;;5039655;28;20124;-66
2023/08/22 09:34:55;;;;;;;2.58;2.00;;;23.00;1.00;;;;;;5051827;28;20573;-66
2023/08/22 09:37:44;;;;;;;1.30;1.20;;;23.10;1.00;;;;;;5067125;28;20032;-66
2023/08/22 09:40:10;;;;;;;;;;;23.20;1.00;;;;;;5037487;28;20078;-66
2023/08/22 09:42:38;;;;;;;4.45;1.52;;;23.30;1.00;;;;;;5062264;28;19925;-66
2023/08/22 09:45:05;;;;;;;2.67;1.50;;;23.30;1.00;;;;;;5048397;28;20087;-66
2023/08/22 09:47:32;;;;;;;2.83;1.48;;;23.30;1.00;;;;;;5058918;28;20569;-65
2023/08/22 09:50:05;;;;;;;3.40;1.70;;;23.40;1.00;;;;;;5064789;28;20116;-66
2023/08/22 09:52:30;;;;;;;3.35;1.52;;;23.50;1.00;;;;;;5059867;28;20434;-66
2023/08/22 09:54:57;;;;;;;2.30;1.67;;;23.70;1.00;;;;;;5058709;28;20118;-66
2023/08/22 09:57:25;;;;;;;2.90;1.77;;;23.90;1.00;;;;;;5062884;28;20399;-65
2023/08/22 09:59:51;;;;;;;2.73;2.00;;;24.00;1.00;;;;;;5058381;28;20044;-66
2023/08/22 10:02:19;;;;;;;3.90;1.63;;;24.10;1.00;;;;;;5045990;28;20548;-66
2023/08/22 10:04:46;;;;;;;5.53;1.88;;;24.00;1.00;;;;;;5036399;28;20127;-66
2023/08/22 10:07:13;;;;;;;8.70;1.77;;;23.90;1.00;;;;;;5063892;28;20080;-66
2023/08/22 10:09:39;;;;;;;3.20;1.38;;;23.90;1.00;;;;;;5057844;28;20029;-66
2023/08/22 10:12:09;;;;;;;3.30;1.92;;;24.00;1.00;;;;;;5060364;28;20090;-65
2023/08/22 10:14:50;;;;;;;7.70;1.98;;;24.00;1.00;;;;;;5046440;28;20120;-65
2023/08/22 10:17:16;;;;;;;2.25;1.60;;;24.10;1.00;;;;;;5042646;28;20084;-66
2023/08/22 10:19:43;;;;;;;2.65;1.60;;;24.10;1.00;;;;;;5062031;28;20071;-66
2023/08/22 10:22:13;;;;;;;3.00;1.25;;;24.20;1.00;;;;;;5030047;28;20450;-66
2023/08/22 10:24:40;;;;;;;2.10;1.08;;;24.20;1.00;;;;;;5042653;28;20045;-65
2023/08/22 10:27:14;;;;;;;4.53;1.70;;;24.20;1.00;;;;;;5064192;28;20056;-65
2023/08/22 10:29:45;;;;;;;5.13;1.58;;;24.40;1.00;;;;;;5060724;28;20179;-65
2023/08/22 10:32:10;;;;;;;2.28;1.40;;;24.50;1.00;;;;;;5056468;28;20518;-65
2023/08/22 10:34:39;;;;;;;1.50;1.30;;;24.60;1.00;;;;;;5063337;28;20118;-65
2023/08/22 10:37:17;;;;;;;5.63;1.40;;;24.60;1.00;;;;;;5062546;28;20045;-65
2023/08/22 10:39:44;;;;;;;1.95;1.35;;;24.70;1.00;;;;;;5064373;28;20052;-65
2023/08/22 10:42:13;;;;;;;2.72;0.90;;;24.80;1.00;;;;;;5027999;28;20127;-65
2023/08/22 10:44:42;;;;;;;1.15;1.05;;;24.80;1.00;;;;;;5051200;28;20072;-65
2023/08/22 10:47:14;;;;;;;2.67;1.20;;;24.80;1.00;;;;;;5062621;28;20490;-65
2023/08/22 10:49:41;;;;;;;0.88;0.82;;;24.80;1.00;;;;;;5058122;28;20041;-66
2023/08/22 10:52:11;;;;;;;1.63;1.30;;;24.90;1.00;;;;;;5044509;28;20051;-66
2023/08/22 10:54:59;;;;;;;2.45;1.08;;;25.00;1.00;;;;;;5043142;28;20175;-66
2023/08/22 10:57:27;;;;;;;2.42;1.10;;;25.00;1.00;;;;;;5040004;28;20056;-66
2023/08/22 11:00:19;;;;;;;3.97;1.08;;;25.10;1.00;;;;;;5031934;28;20150;-66
2023/08/22 11:02:51;;;;;;;2.60;1.17;;;25.20;1.00;;;;;;5036239;28;20120;-65
2023/08/22 11:05:17;;;;;;;1.42;0.73;;;25.40;1.00;;;;;;5029897;28;20051;-66
2023/08/22 11:07:54;;;;;;;2.47;1.23;;;25.50;1.00;;;;;;5033012;28;20059;-66
2023/08/22 11:10:24;;;;;;;4.35;1.35;;;25.60;1.00;;;;;;5035080;28;20639;-66
2023/08/22 11:12:53;;;;;;;2.00;0.98;;;25.60;1.00;;;;;;5045567;28;20127;-66
2023/08/22 11:15:19;;;;;;;1.00;0.68;;;25.60;1.00;;;;;;5063254;28;20045;-66
2023/08/22 11:17:50;;;;;;;1.50;0.80;;;25.60;1.00;;;;;;5064380;28;20044;-66
2023/08/22 11:20:23;;;;;;;1.92;1.00;;;25.50;1.00;;;;;;5063509;28;20101;-66
2023/08/22 11:22:49;;;;;;;2.58;1.10;;;25.60;1.00;;;;;;5063951;28;20084;-66
2023/08/22 11:25:23;;;;;;;1.25;0.82;;;25.60;1.00;;;;;;5063207;28;20075;-66
2023/08/22 11:27:49;;;;;;;1.02;0.80;;;25.60;1.00;;;;;;5066441;28;20049;-65
2023/08/22 11:30:18;;;;;;;1.02;0.77;;;25.70;1.00;;;;;;5048083;28;20444;-65
2023/08/22 11:32:45;;;;;;;6.05;1.15;;;25.80;1.00;;;;;;5065543;28;20110;-66
2023/08/22 11:35:11;;;;;;;1.15;0.82;;;25.90;1.00;;;;;;5065200;28;20044;-66
2023/08/22 11:37:40;;;;;;;1.20;0.80;;;25.90;1.00;;;;;;5054477;28;20087;-66
2023/08/22 11:40:12;;;;;;;1.77;1.02;;;25.90;1.00;;;;;;5065738;28;20051;-66
2023/08/22 11:42:39;;;;;;;0.95;0.82;;;25.90;1.00;;;;;;5066193;28;20812;-66
2023/08/22 11:45:05;;;;;;;4.20;0.80;;;26.00;1.00;;;;;;5080514;28;20076;-66
2023/08/22 11:47:48;;;;;;;2.80;1.05;;;25.90;1.00;;;;;;5066355;28;20044;-66
2023/08/22 11:50:25;;;;;;;1.05;1.00;;;25.90;1.00;;;;;;5065372;28;20036;-66
2023/08/22 11:53:08;;;;;;;1.75;1.10;;;25.90;1.00;;;;;;5072752;28;20461;-66
2023/08/22 11:55:37;;;;;;;1.75;1.00;;;25.90;1.00;;;;;;5034994;28;20771;-66
2023/08/22 11:58:04;;;;;;;1.13;1.05;;;25.80;1.00;;;;;;5055499;28;20935;-66
2023/08/22 12:00:34;;;;;;;2.10;0.88;;;25.90;1.00;;;;;;5035534;28;20242;-66
2023/08/22 12:03:05;;;;;;;1.17;1.00;;;26.00;1.00;;;;;;5055264;28;20053;-66
2023/08/22 12:05:36;;;;;;;2.78;1.00;;;26.00;1.00;;;;;;5053254;28;20048;-66
2023/08/22 12:08:11;;;;;;;1.33;0.93;;;26.10;1.00;;;;;;5058968;28;20553;-66
2023/08/22 12:10:45;;;;;;;1.05;0.98;;;25.90;1.00;;;;;;5053518;28;20076;-66
2023/08/22 12:13:12;;;;;;;0.85;0.85;;;25.60;1.00;;;;;;5085187;28;20079;-66
2023/08/22 12:15:41;;;;;;;1.83;0.80;;;25.60;1.00;;;;;;5069193;28;20410;-66
2023/08/22 12:18:08;;;;;;;1.95;1.27;;;25.50;1.00;;;;;;5052656;28;20048;-65
2023/08/22 12:20:35;;;;;;;1.10;0.90;;;25.60;1.00;;;;;;5068763;28;20059;-66
2023/08/22 12:23:01;;;;;;;1.17;0.95;;;25.70;1.00;;;;;;5068960;28;20044;-66
2023/08/22 12:25:27;;;;;;;1.00;0.70;;;25.90;1.00;;;;;;5084040;28;20494;-65
2023/08/22 12:27:53;;;;;;;1.73;0.70;;;26.10;1.00;;;;;;5068677;28;20053;-65
2023/08/22 12:30:19;;;;;;;2.70;0.90;;;26.40;1.00;;;;;;5068636;28;20045;-65
2023/08/22 12:32:45;;;;;;;1.25;1.10;;;26.60;1.00;;;;;;5065472;28;20067;-65
2023/08/22 12:35:12;;;;;;;1.15;1.02;;;26.50;1.00;;;;;;5069152;28;20080;-64
2023/08/22 12:37:38;;;;;;;2.70;1.33;;;26.30;1.00;;;;;;5069160;28;20044;-65
2023/08/22 12:40:10;;;;;;;5.25;1.05;;;26.20;1.00;;;;;;5068369;28;20048;-66
2023/08/22 12:42:37;;;;;;;4.18;0.70;;;26.00;1.00;;;;;;5068904;28;20563;-66
2023/08/22 12:45:03;;;;;;;0.90;0.77;;;26.00;1.00;;;;;;5050435;28;20040;-66
2023/08/22 12:47:28;;;;;;;5.03;1.05;;;26.00;1.00;;;;;;5068299;28;20051;-65
2023/08/22 12:49:54;;;;;;;2.90;1.17;;;26.20;1.00;;;;;;5067821;28;20040;-66